sensor_id;sensor_type;location;lat;lon;timestamp;P1;durP1;ratioP1;P2;durP2;ratioP2
72085;SDS011;64750;52.134;5.424;2023-06-10T00:00:01;4.78;;;3.88;;
72085;SDS011;64750;52.134;5.424;2023-06-10T00:02:31;4.88;;;4.38;;
72085;SDS011;64750;52.134;5.424;2023-06-10T00:04:58;4.43;;;4.03;;
72085;SDS011;64750;52.134;5.424;2023-06-10T00:07:24;4.40;;;4.00;;
72085;SDS011;64750;52.134;5.424;2023-06-10T00:09:51;4.20;;;3.80;;
72085;SDS011;64750;52.134;5.424;2023-06-10T00:12:17;4.32;;;3.92;;
72085;SDS011;64750;52.134;5.424;2023-06-10T00:14:46;4.20;;;3.88;;
72085;SDS011;64750;52.134;5.424;2023-06-10T00:17:14;7.35;;;4.20;;
72085;SDS011;64750;52.134;5.424;2023-06-10T00:19:41;4.22;;;3.83;;
72085;SDS011;64750;52.134;5.424;2023-06-10T00:22:08;5.87;;;4.10;;
72085;SDS011;64750;52.134;5.424;2023-06-10T00:24:37;5.18;;;3.92;;
72085;SDS011;64750;52.134;5.424;2023-06-10T00:27:04;4.78;;;4.28;;
72085;SDS011;64750;52.134;5.424;2023-06-10T00:29:31;4.07;;;3.60;;
72085;SDS011;64750;52.134;5.424;2023-06-10T00:31:58;5.53;;;4.25;;
72085;SDS011;64750;52.134;5.424;2023-06-10T00:34:24;12.10;;;4.40;;
72085;SDS011;64750;52.134;5.424;2023-06-10T00:36:51;6.80;;;4.20;;
72085;SDS011;64750;52.134;5.424;2023-06-10T00:39:17;5.03;;;3.90;;
72085;SDS011;64750;52.134;5.424;2023-06-10T00:41:44;4.57;;;4.05;;
72085;SDS011;64750;52.134;5.424;2023-06-10T00:44:10;7.30;;;4.03;;
72085;SDS011;64750;52.134;5.424;2023-06-10T00:46:37;7.10;;;4.20;;
72085;SDS011;64750;52.134;5.424;2023-06-10T00:49:03;5.28;;;4.82;;
72085;SDS011;64750;52.134;5.424;2023-06-10T00:51:30;8.32;;;4.63;;
72085;SDS011;64750;52.134;5.424;2023-06-10T00:53:58;5.18;;;4.68;;
72085;SDS011;64750;52.134;5.424;2023-06-10T00:56:25;5.45;;;4.93;;
72085;SDS011;64750;52.134;5.424;2023-06-10T00:58:51;10.17;;;4.90;;
72085;SDS011;64750;52.134;5.424;2023-06-10T01:01:18;8.68;;;5.05;;
72085;SDS011;64750;52.134;5.424;2023-06-10T01:03:46;7.93;;;5.53;;
72085;SDS011;64750;52.134;5.424;2023-06-10T01:06:17;7.80;;;5.60;;
72085;SDS011;64750;52.134;5.424;2023-06-10T01:09:10;8.82;;;5.70;;
72085;SDS011;64750;52.134;5.424;2023-06-10T01:11:45;7.67;;;4.80;;
72085;SDS011;64750;52.134;5.424;2023-06-10T01:14:16;6.43;;;4.93;;
72085;SDS011;64750;52.134;5.424;2023-06-10T01:16:43;9.52;;;5.30;;
72085;SDS011;64750;52.134;5.424;2023-06-10T01:19:12;7.53;;;5.40;;
72085;SDS011;64750;52.134;5.424;2023-06-10T01:21:40;8.50;;;5.03;;
72085;SDS011;64750;52.134;5.424;2023-06-10T01:24:06;7.10;;;5.63;;
72085;SDS011;64750;52.134;5.424;2023-06-10T01:26:37;5.25;;;4.47;;
72085;SDS011;64750;52.134;5.424;2023-06-10T01:29:07;5.47;;;4.72;;
72085;SDS011;64750;52.134;5.424;2023-06-10T01:34:27;6.10;;;5.07;;
72085;SDS011;64750;52.134;5.424;2023-06-10T01:36:57;7.20;;;4.53;;
72085;SDS011;64750;52.134;5.424;2023-06-10T01:39:24;6.95;;;4.85;;
72085;SDS011;64750;52.134;5.424;2023-06-10T01:41:52;5.57;;;4.60;;
72085;SDS011;64750;52.134;5.424;2023-06-10T01:44:20;4.97;;;4.25;;
72085;SDS011;64750;52.134;5.424;2023-06-10T01:46:47;7.32;;;5.07;;
72085;SDS011;64750;52.134;5.424;2023-06-10T01:49:13;6.30;;;4.07;;
72085;SDS011;64750;52.134;5.424;2023-06-10T01:51:40;6.97;;;4.28;;
72085;SDS011;64750;52.134;5.424;2023-06-10T01:54:07;4.57;;;4.10;;
72085;SDS011;64750;52.134;5.424;2023-06-10T01:56:33;7.32;;;4.00;;
72085;SDS011;64750;52.134;5.424;2023-06-10T01:59:00;6.38;;;4.90;;
72085;SDS011;64750;52.134;5.424;2023-06-10T02:01:27;4.73;;;4.33;;
72085;SDS011;64750;52.134;5.424;2023-06-10T02:03:55;4.75;;;4.05;;
72085;SDS011;64750;52.134;5.424;2023-06-10T02:06:21;5.50;;;3.88;;
72085;SDS011;64750;52.134;5.424;2023-06-10T02:08:48;5.68;;;3.92;;
72085;SDS011;64750;52.134;5.424;2023-06-10T02:11:14;4.10;;;3.70;;
72085;SDS011;64750;52.134;5.424;2023-06-10T02:13:41;6.33;;;3.87;;
72085;SDS011;64750;52.134;5.424;2023-06-10T02:16:07;8.35;;;4.32;;
72085;SDS011;64750;52.134;5.424;2023-06-10T02:18:35;6.50;;;4.22;;
72085;SDS011;64750;52.134;5.424;2023-06-10T02:21:01;6.28;;;3.50;;
72085;SDS011;64750;52.134;5.424;2023-06-10T02:23:28;6.93;;;4.00;;
72085;SDS011;64750;52.134;5.424;2023-06-10T02:25:54;5.83;;;4.00;;
72085;SDS011;64750;52.134;5.424;2023-06-10T02:28:21;4.10;;;3.70;;
72085;SDS011;64750;52.134;5.424;2023-06-10T02:30:48;4.47;;;4.10;;
72085;SDS011;64750;52.134;5.424;2023-06-10T02:33:14;5.65;;;3.78;;
72085;SDS011;64750;52.134;5.424;2023-06-10T02:35:41;7.32;;;4.32;;
72085;SDS011;64750;52.134;5.424;2023-06-10T02:38:07;3.70;;;3.40;;
72085;SDS011;64750;52.134;5.424;2023-06-10T02:40:34;4.85;;;3.70;;
72085;SDS011;64750;52.134;5.424;2023-06-10T02:43:00;6.53;;;3.75;;
72085;SDS011;64750;52.134;5.424;2023-06-10T02:45:26;5.53;;;3.70;;
72085;SDS011;64750;52.134;5.424;2023-06-10T02:47:53;5.25;;;3.85;;
72085;SDS011;64750;52.134;5.424;2023-06-10T02:50:19;5.23;;;3.80;;
72085;SDS011;64750;52.134;5.424;2023-06-10T02:52:46;6.50;;;4.22;;
72085;SDS011;64750;52.134;5.424;2023-06-10T02:55:13;7.50;;;3.97;;
72085;SDS011;64750;52.134;5.424;2023-06-10T02:57:39;4.50;;;4.10;;
72085;SDS011;64750;52.134;5.424;2023-06-10T03:00:06;4.50;;;3.92;;
72085;SDS011;64750;52.134;5.424;2023-06-10T03:02:37;5.80;;;4.17;;
72085;SDS011;64750;52.134;5.424;2023-06-10T03:05:05;6.82;;;4.03;;
72085;SDS011;64750;52.134;5.424;2023-06-10T03:07:37;8.13;;;3.70;;
72085;SDS011;64750;52.134;5.424;2023-06-10T03:10:04;4.28;;;3.88;;
72085;SDS011;64750;52.134;5.424;2023-06-10T03:12:31;4.22;;;3.83;;
72085;SDS011;64750;52.134;5.424;2023-06-10T03:14:58;7.30;;;3.87;;
72085;SDS011;64750;52.134;5.424;2023-06-10T03:17:26;12.23;;;5.10;;
72085;SDS011;64750;52.134;5.424;2023-06-10T03:19:53;4.10;;;3.80;;
72085;SDS011;64750;52.134;5.424;2023-06-10T03:22:19;6.53;;;4.13;;
72085;SDS011;64750;52.134;5.424;2023-06-10T03:24:46;4.30;;;3.90;;
72085;SDS011;64750;52.134;5.424;2023-06-10T03:27:16;7.30;;;3.80;;
72085;SDS011;64750;52.134;5.424;2023-06-10T03:29:43;5.90;;;4.15;;
72085;SDS011;64750;52.134;5.424;2023-06-10T03:32:09;5.75;;;4.35;;
72085;SDS011;64750;52.134;5.424;2023-06-10T03:34:36;7.22;;;4.55;;
72085;SDS011;64750;52.134;5.424;2023-06-10T03:37:02;5.22;;;3.95;;
72085;SDS011;64750;52.134;5.424;2023-06-10T03:39:29;4.93;;;3.67;;
72085;SDS011;64750;52.134;5.424;2023-06-10T03:41:55;6.18;;;3.85;;
72085;SDS011;64750;52.134;5.424;2023-06-10T03:44:24;7.03;;;4.10;;
72085;SDS011;64750;52.134;5.424;2023-06-10T03:46:52;4.93;;;3.83;;
72085;SDS011;64750;52.134;5.424;2023-06-10T03:49:19;5.78;;;4.28;;
72085;SDS011;64750;52.134;5.424;2023-06-10T03:51:45;4.40;;;3.90;;
72085;SDS011;64750;52.134;5.424;2023-06-10T03:54:12;4.70;;;3.55;;
72085;SDS011;64750;52.134;5.424;2023-06-10T03:56:38;8.00;;;4.43;;
72085;SDS011;64750;52.134;5.424;2023-06-10T03:59:05;5.85;;;4.00;;
72085;SDS011;64750;52.134;5.424;2023-06-10T04:01:31;6.95;;;4.00;;
72085;SDS011;64750;52.134;5.424;2023-06-10T04:03:59;7.37;;;4.80;;
72085;SDS011;64750;52.134;5.424;2023-06-10T04:06:27;5.72;;;4.18;;
72085;SDS011;64750;52.134;5.424;2023-06-10T04:08:55;4.90;;;3.97;;
72085;SDS011;64750;52.134;5.424;2023-06-10T04:11:26;6.55;;;4.03;;
72085;SDS011;64750;52.134;5.424;2023-06-10T04:13:52;7.28;;;3.72;;
72085;SDS011;64750;52.134;5.424;2023-06-10T04:16:19;4.63;;;4.23;;
72085;SDS011;64750;52.134;5.424;2023-06-10T04:18:47;6.57;;;4.18;;
72085;SDS011;64750;52.134;5.424;2023-06-10T04:21:13;4.82;;;4.15;;
72085;SDS011;64750;52.134;5.424;2023-06-10T04:23:40;4.60;;;4.20;;
72085;SDS011;64750;52.134;5.424;2023-06-10T04:26:06;5.90;;;4.47;;
72085;SDS011;64750;52.134;5.424;2023-06-10T04:28:33;5.33;;;3.87;;
72085;SDS011;64750;52.134;5.424;2023-06-10T04:31:00;8.77;;;4.25;;
72085;SDS011;64750;52.134;5.424;2023-06-10T04:33:27;7.75;;;4.00;;
72085;SDS011;64750;52.134;5.424;2023-06-10T04:35:54;5.22;;;3.85;;
72085;SDS011;64750;52.134;5.424;2023-06-10T04:38:21;5.80;;;4.22;;
72085;SDS011;64750;52.134;5.424;2023-06-10T04:40:47;5.43;;;4.43;;
72085;SDS011;64750;52.134;5.424;2023-06-10T04:43:14;6.45;;;4.55;;
72085;SDS011;64750;52.134;5.424;2023-06-10T04:45:42;5.53;;;4.47;;
72085;SDS011;64750;52.134;5.424;2023-06-10T04:48:10;7.97;;;4.05;;
72085;SDS011;64750;52.134;5.424;2023-06-10T04:50:37;4.80;;;4.35;;
72085;SDS011;64750;52.134;5.424;2023-06-10T04:53:05;5.40;;;4.43;;
72085;SDS011;64750;52.134;5.424;2023-06-10T04:55:32;6.10;;;4.55;;
72085;SDS011;64750;52.134;5.424;2023-06-10T04:58:00;7.93;;;4.13;;
72085;SDS011;64750;52.134;5.424;2023-06-10T05:00:26;4.28;;;3.92;;
72085;SDS011;64750;52.134;5.424;2023-06-10T05:02:53;6.10;;;4.50;;
72085;SDS011;64750;52.134;5.424;2023-06-10T05:05:20;7.30;;;4.23;;
72085;SDS011;64750;52.134;5.424;2023-06-10T05:07:46;6.35;;;4.30;;
72085;SDS011;64750;52.134;5.424;2023-06-10T05:10:13;6.13;;;4.20;;
72085;SDS011;64750;52.134;5.424;2023-06-10T05:12:40;5.63;;;3.92;;
72085;SDS011;64750;52.134;5.424;2023-06-10T05:15:07;7.97;;;4.70;;
72085;SDS011;64750;52.134;5.424;2023-06-10T05:17:35;7.10;;;4.60;;
72085;SDS011;64750;52.134;5.424;2023-06-10T05:20:02;4.30;;;3.95;;
72085;SDS011;64750;52.134;5.424;2023-06-10T05:22:29;5.18;;;4.25;;
72085;SDS011;64750;52.134;5.424;2023-06-10T05:24:55;5.93;;;4.30;;
72085;SDS011;64750;52.134;5.424;2023-06-10T05:27:22;6.57;;;4.63;;
72085;SDS011;64750;52.134;5.424;2023-06-10T05:29:48;5.70;;;4.23;;
72085;SDS011;64750;52.134;5.424;2023-06-10T05:32:15;5.80;;;3.70;;
72085;SDS011;64750;52.134;5.424;2023-06-10T05:34:42;4.80;;;4.10;;
72085;SDS011;64750;52.134;5.424;2023-06-10T05:37:08;6.78;;;4.60;;
72085;SDS011;64750;52.134;5.424;2023-06-10T05:39:35;17.15;;;4.55;;
72085;SDS011;64750;52.134;5.424;2023-06-10T05:42:06;4.17;;;3.53;;
72085;SDS011;64750;52.134;5.424;2023-06-10T05:44:33;6.35;;;4.70;;
72085;SDS011;64750;52.134;5.424;2023-06-10T05:47:03;7.07;;;4.72;;
72085;SDS011;64750;52.134;5.424;2023-06-10T05:49:29;7.90;;;4.10;;
72085;SDS011;64750;52.134;5.424;2023-06-10T05:51:56;5.03;;;4.32;;
72085;SDS011;64750;52.134;5.424;2023-06-10T05:54:25;4.33;;;3.90;;
72085;SDS011;64750;52.134;5.424;2023-06-10T05:56:55;5.32;;;4.20;;
72085;SDS011;64750;52.134;5.424;2023-06-10T05:59:21;6.82;;;4.78;;
72085;SDS011;64750;52.134;5.424;2023-06-10T06:01:49;7.72;;;4.50;;
72085;SDS011;64750;52.134;5.424;2023-06-10T06:04:16;5.97;;;4.28;;
72085;SDS011;64750;52.134;5.424;2023-06-10T06:06:43;5.23;;;4.23;;
72085;SDS011;64750;52.134;5.424;2023-06-10T06:09:09;5.10;;;4.05;;
72085;SDS011;64750;52.134;5.424;2023-06-10T06:11:36;4.45;;;4.03;;
72085;SDS011;64750;52.134;5.424;2023-06-10T06:14:02;5.93;;;3.88;;
72085;SDS011;64750;52.134;5.424;2023-06-10T06:16:29;5.80;;;3.95;;
72085;SDS011;64750;52.134;5.424;2023-06-10T06:18:55;5.73;;;3.83;;
72085;SDS011;64750;52.134;5.424;2023-06-10T06:21:22;4.63;;;4.22;;
72085;SDS011;64750;52.134;5.424;2023-06-10T06:23:48;5.05;;;3.90;;
72085;SDS011;64750;52.134;5.424;2023-06-10T06:26:15;5.38;;;4.88;;
72085;SDS011;64750;52.134;5.424;2023-06-10T06:28:41;6.85;;;4.15;;
72085;SDS011;64750;52.134;5.424;2023-06-10T06:31:08;8.57;;;3.93;;
72085;SDS011;64750;52.134;5.424;2023-06-10T06:33:34;5.88;;;4.30;;
72085;SDS011;64750;52.134;5.424;2023-06-10T06:36:01;7.55;;;4.20;;
72085;SDS011;64750;52.134;5.424;2023-06-10T06:38:27;5.05;;;4.00;;
72085;SDS011;64750;52.134;5.424;2023-06-10T06:40:54;5.45;;;4.35;;
72085;SDS011;64750;52.134;5.424;2023-06-10T06:43:20;7.33;;;4.47;;
72085;SDS011;64750;52.134;5.424;2023-06-10T06:45:47;6.85;;;4.30;;
72085;SDS011;64750;52.134;5.424;2023-06-10T06:48:13;5.53;;;4.28;;
72085;SDS011;64750;52.134;5.424;2023-06-10T06:50:40;6.30;;;4.15;;
72085;SDS011;64750;52.134;5.424;2023-06-10T06:53:07;5.82;;;4.28;;
72085;SDS011;64750;52.134;5.424;2023-06-10T06:55:34;5.53;;;4.40;;
72085;SDS011;64750;52.134;5.424;2023-06-10T06:58:00;4.40;;;4.00;;
72085;SDS011;64750;52.134;5.424;2023-06-10T07:00:30;5.63;;;4.10;;
72085;SDS011;64750;52.134;5.424;2023-06-10T07:02:57;5.50;;;4.13;;
72085;SDS011;64750;52.134;5.424;2023-06-10T07:05:24;6.53;;;4.10;;
72085;SDS011;64750;52.134;5.424;2023-06-10T07:07:54;4.37;;;3.97;;
72085;SDS011;64750;52.134;5.424;2023-06-10T07:10:23;6.40;;;4.30;;
72085;SDS011;64750;52.134;5.424;2023-06-10T07:12:51;4.32;;;3.92;;
72085;SDS011;64750;52.134;5.424;2023-06-10T07:15:18;6.60;;;3.75;;
72085;SDS011;64750;52.134;5.424;2023-06-10T07:17:45;4.78;;;4.38;;
72085;SDS011;64750;52.134;5.424;2023-06-10T07:20:11;4.43;;;4.00;;
72085;SDS011;64750;52.134;5.424;2023-06-10T07:22:38;5.60;;;4.28;;
72085;SDS011;64750;52.134;5.424;2023-06-10T07:25:05;6.00;;;4.43;;
72085;SDS011;64750;52.134;5.424;2023-06-10T07:27:32;5.20;;;4.30;;
72085;SDS011;64750;52.134;5.424;2023-06-10T07:29:59;4.78;;;4.32;;
72085;SDS011;64750;52.134;5.424;2023-06-10T07:32:27;5.60;;;3.40;;
72085;SDS011;64750;52.134;5.424;2023-06-10T07:34:53;5.30;;;4.00;;
72085;SDS011;64750;52.134;5.424;2023-06-10T07:37:20;4.57;;;4.03;;
72085;SDS011;64750;52.134;5.424;2023-06-10T07:39:47;6.60;;;3.67;;
72085;SDS011;64750;52.134;5.424;2023-06-10T07:42:13;6.43;;;4.03;;
72085;SDS011;64750;52.134;5.424;2023-06-10T07:44:40;4.17;;;3.73;;
72085;SDS011;64750;52.134;5.424;2023-06-10T07:47:06;5.55;;;3.80;;
72085;SDS011;64750;52.134;5.424;2023-06-10T07:49:33;4.65;;;3.78;;
72085;SDS011;64750;52.134;5.424;2023-06-10T07:51:59;5.75;;;3.55;;
72085;SDS011;64750;52.134;5.424;2023-06-10T07:54:25;4.72;;;3.88;;
72085;SDS011;64750;52.134;5.424;2023-06-10T07:56:55;5.60;;;4.00;;
72085;SDS011;64750;52.134;5.424;2023-06-10T07:59:21;5.45;;;3.65;;
72085;SDS011;64750;52.134;5.424;2023-06-10T08:01:48;6.18;;;4.20;;
72085;SDS011;64750;52.134;5.424;2023-06-10T08:04:14;4.18;;;3.63;;
72085;SDS011;64750;52.134;5.424;2023-06-10T08:06:41;9.25;;;3.80;;
72085;SDS011;64750;52.134;5.424;2023-06-10T08:09:07;5.53;;;3.63;;
72085;SDS011;64750;52.134;5.424;2023-06-10T08:11:34;7.72;;;3.65;;
72085;SDS011;64750;52.134;5.424;2023-06-10T08:14:01;8.82;;;4.75;;
72085;SDS011;64750;52.134;5.424;2023-06-10T08:16:27;9.43;;;4.10;;
72085;SDS011;64750;52.134;5.424;2023-06-10T08:18:54;4.07;;;3.67;;
72085;SDS011;64750;52.134;5.424;2023-06-10T08:21:21;5.50;;;3.63;;
72085;SDS011;64750;52.134;5.424;2023-06-10T08:23:47;5.30;;;3.88;;
72085;SDS011;64750;52.134;5.424;2023-06-10T08:26:14;5.03;;;4.10;;
72085;SDS011;64750;52.134;5.424;2023-06-10T08:28:40;3.80;;;3.38;;
72085;SDS011;64750;52.134;5.424;2023-06-10T08:31:07;6.00;;;3.92;;
72085;SDS011;64750;52.134;5.424;2023-06-10T08:33:33;10.67;;;4.20;;
72085;SDS011;64750;52.134;5.424;2023-06-10T08:36:00;8.55;;;3.80;;
72085;SDS011;64750;52.134;5.424;2023-06-10T08:38:26;5.65;;;3.92;;
72085;SDS011;64750;52.134;5.424;2023-06-10T08:40:54;5.53;;;3.63;;
72085;SDS011;64750;52.134;5.424;2023-06-10T08:43:27;6.70;;;4.50;;
72085;SDS011;64750;52.134;5.424;2023-06-10T08:46:00;4.97;;;3.67;;
72085;SDS011;64750;52.134;5.424;2023-06-10T08:48:29;4.20;;;3.70;;
72085;SDS011;64750;52.134;5.424;2023-06-10T08:50:57;6.13;;;3.47;;
72085;SDS011;64750;52.134;5.424;2023-06-10T08:53:24;4.25;;;3.58;;
72085;SDS011;64750;52.134;5.424;2023-06-10T08:55:52;7.35;;;3.78;;
72085;SDS011;64750;52.134;5.424;2023-06-10T08:58:19;6.53;;;3.80;;
72085;SDS011;64750;52.134;5.424;2023-06-10T09:00:46;4.60;;;4.28;;
72085;SDS011;64750;52.134;5.424;2023-06-10T09:03:13;3.85;;;3.55;;
72085;SDS011;64750;52.134;5.424;2023-06-10T09:05:40;5.07;;;3.53;;
72085;SDS011;64750;52.134;5.424;2023-06-10T09:08:07;4.30;;;3.60;;
72085;SDS011;64750;52.134;5.424;2023-06-10T09:10:35;5.50;;;3.50;;
72085;SDS011;64750;52.134;5.424;2023-06-10T09:13:02;4.05;;;3.25;;
72085;SDS011;64750;52.134;5.424;2023-06-10T09:15:28;4.38;;;3.95;;
72085;SDS011;64750;52.134;5.424;2023-06-10T09:17:55;5.35;;;3.55;;
72085;SDS011;64750;52.134;5.424;2023-06-10T09:20:21;6.20;;;3.53;;
72085;SDS011;64750;52.134;5.424;2023-06-10T09:22:48;7.47;;;3.77;;
72085;SDS011;64750;52.134;5.424;2023-06-10T09:25:15;4.03;;;3.63;;
72085;SDS011;64750;52.134;5.424;2023-06-10T09:32:56;6.65;;;3.92;;
72085;SDS011;64750;52.134;5.424;2023-06-10T09:35:24;7.63;;;3.30;;
72085;SDS011;64750;52.134;5.424;2023-06-10T09:37:58;3.95;;;3.22;;
72085;SDS011;64750;52.134;5.424;2023-06-10T09:40:26;5.75;;;3.42;;
72085;SDS011;64750;52.134;5.424;2023-06-10T09:42:55;4.13;;;3.72;;
72085;SDS011;64750;52.134;5.424;2023-06-10T09:45:23;7.88;;;3.67;;
72085;SDS011;64750;52.134;5.424;2023-06-10T09:47:55;6.70;;;3.60;;
72085;SDS011;64750;52.134;5.424;2023-06-10T09:50:22;4.10;;;3.75;;
72085;SDS011;64750;52.134;5.424;2023-06-10T09:52:48;7.07;;;3.22;;
72085;SDS011;64750;52.134;5.424;2023-06-10T09:55:16;5.03;;;3.40;;
72085;SDS011;64750;52.134;5.424;2023-06-10T09:57:43;3.65;;;3.35;;
72085;SDS011;64750;52.134;5.424;2023-06-10T10:00:14;3.83;;;3.10;;
72085;SDS011;64750;52.134;5.424;2023-06-10T10:02:45;4.82;;;3.55;;
72085;SDS011;64750;52.134;5.424;2023-06-10T10:05:17;3.20;;;2.90;;
72085;SDS011;64750;52.134;5.424;2023-06-10T10:07:45;3.30;;;3.10;;
72085;SDS011;64750;52.134;5.424;2023-06-10T10:10:12;4.25;;;3.10;;
72085;SDS011;64750;52.134;5.424;2023-06-10T10:12:41;3.87;;;3.57;;
72085;SDS011;64750;52.134;5.424;2023-06-10T10:15:09;3.30;;;3.00;;
72085;SDS011;64750;52.134;5.424;2023-06-10T10:17:38;4.50;;;3.70;;
72085;SDS011;64750;52.134;5.424;2023-06-10T10:20:20;4.75;;;3.10;;
72085;SDS011;64750;52.134;5.424;2023-06-10T10:22:51;6.28;;;3.20;;
72085;SDS011;64750;52.134;5.424;2023-06-10T10:25:28;5.97;;;3.20;;
72085;SDS011;64750;52.134;5.424;2023-06-10T10:28:02;5.93;;;3.00;;
72085;SDS011;64750;52.134;5.424;2023-06-10T10:30:45;3.10;;;2.90;;
72085;SDS011;64750;52.134;5.424;2023-06-10T10:35:59;3.47;;;3.03;;
72085;SDS011;64750;52.134;5.424;2023-06-10T10:38:27;6.67;;;3.43;;
72085;SDS011;64750;52.134;5.424;2023-06-10T10:40:54;4.38;;;3.15;;
72085;SDS011;64750;52.134;5.424;2023-06-10T10:43:25;3.38;;;3.10;;
72085;SDS011;64750;52.134;5.424;2023-06-10T10:46:00;2.90;;;2.70;;
72085;SDS011;64750;52.134;5.424;2023-06-10T10:48:32;3.08;;;2.75;;
72085;SDS011;64750;52.134;5.424;2023-06-10T10:51:00;3.47;;;2.90;;
72085;SDS011;64750;52.134;5.424;2023-06-10T10:53:27;3.97;;;2.97;;
72085;SDS011;64750;52.134;5.424;2023-06-10T10:58:26;3.88;;;3.50;;
72085;SDS011;64750;52.134;5.424;2023-06-10T11:00:52;6.15;;;3.13;;
72085;SDS011;64750;52.134;5.424;2023-06-10T11:03:19;3.40;;;3.10;;
72085;SDS011;64750;52.134;5.424;2023-06-10T11:05:47;4.93;;;3.25;;
72085;SDS011;64750;52.134;5.424;2023-06-10T11:08:45;6.45;;;3.17;;
72085;SDS011;64750;52.134;5.424;2023-06-10T11:11:18;4.28;;;3.05;;
72085;SDS011;64750;52.134;5.424;2023-06-10T11:13:57;6.05;;;3.45;;
72085;SDS011;64750;52.134;5.424;2023-06-10T11:16:39;4.03;;;3.10;;
72085;SDS011;64750;52.134;5.424;2023-06-10T11:19:07;3.50;;;3.05;;
72085;SDS011;64750;52.134;5.424;2023-06-10T11:24:28;6.38;;;3.00;;
72085;SDS011;64750;52.134;5.424;2023-06-10T11:27:14;3.42;;;3.20;;
72085;SDS011;64750;52.134;5.424;2023-06-10T11:32:29;3.38;;;3.17;;
72085;SDS011;64750;52.134;5.424;2023-06-10T11:34:58;6.97;;;3.20;;
72085;SDS011;64750;52.134;5.424;2023-06-10T11:37:25;3.35;;;3.05;;
72085;SDS011;64750;52.134;5.424;2023-06-10T11:39:54;4.50;;;3.38;;
72085;SDS011;64750;52.134;5.424;2023-06-10T11:42:21;5.60;;;3.60;;
72085;SDS011;64750;52.134;5.424;2023-06-10T11:44:52;3.95;;;3.55;;
72085;SDS011;64750;52.134;5.424;2023-06-10T11:47:20;4.93;;;3.25;;
72085;SDS011;64750;52.134;5.424;2023-06-10T11:49:57;5.15;;;3.70;;
72085;SDS011;64750;52.134;5.424;2023-06-10T11:52:31;4.18;;;3.63;;
72085;SDS011;64750;52.134;5.424;2023-06-10T11:54:59;6.63;;;3.20;;
72085;SDS011;64750;52.134;5.424;2023-06-10T11:57:26;6.55;;;3.67;;
72085;SDS011;64750;52.134;5.424;2023-06-10T11:59:53;3.65;;;3.45;;
72085;SDS011;64750;52.134;5.424;2023-06-10T12:02:19;7.40;;;3.45;;
72085;SDS011;64750;52.134;5.424;2023-06-10T12:04:45;4.30;;;3.75;;
72085;SDS011;64750;52.134;5.424;2023-06-10T12:07:18;3.87;;;3.50;;
72085;SDS011;64750;52.134;5.424;2023-06-10T12:09:46;5.15;;;3.45;;
72085;SDS011;64750;52.134;5.424;2023-06-10T12:12:12;8.88;;;3.40;;
72085;SDS011;64750;52.134;5.424;2023-06-10T12:14:57;3.88;;;3.50;;
72085;SDS011;64750;52.134;5.424;2023-06-10T12:20:04;5.10;;;3.50;;
72085;SDS011;64750;52.134;5.424;2023-06-10T12:22:38;4.82;;;3.10;;
72085;SDS011;64750;52.134;5.424;2023-06-10T12:25:09;3.83;;;3.33;;
72085;SDS011;64750;52.134;5.424;2023-06-10T12:27:37;3.60;;;3.40;;
72085;SDS011;64750;52.134;5.424;2023-06-10T12:30:05;4.30;;;3.90;;
72085;SDS011;64750;52.134;5.424;2023-06-10T12:35:03;4.63;;;4.22;;
72085;SDS011;64750;52.134;5.424;2023-06-10T12:37:30;4.60;;;3.53;;
72085;SDS011;64750;52.134;5.424;2023-06-10T12:40:03;5.88;;;3.67;;
72085;SDS011;64750;52.134;5.424;2023-06-10T12:42:30;3.30;;;3.00;;
72085;SDS011;64750;52.134;5.424;2023-06-10T12:44:59;4.43;;;4.03;;
72085;SDS011;64750;52.134;5.424;2023-06-10T12:47:35;5.38;;;3.85;;
72085;SDS011;64750;52.134;5.424;2023-06-10T12:50:08;3.72;;;3.42;;
72085;SDS011;64750;52.134;5.424;2023-06-10T12:52:35;4.38;;;3.67;;
72085;SDS011;64750;52.134;5.424;2023-06-10T12:55:02;4.25;;;3.15;;
72085;SDS011;64750;52.134;5.424;2023-06-10T12:57:30;4.13;;;3.83;;
72085;SDS011;64750;52.134;5.424;2023-06-10T12:59:57;7.05;;;3.97;;
72085;SDS011;64750;52.134;5.424;2023-06-10T13:02:29;3.90;;;3.60;;
72085;SDS011;64750;52.134;5.424;2023-06-10T13:04:56;5.57;;;3.80;;
72085;SDS011;64750;52.134;5.424;2023-06-10T13:07:22;4.03;;;3.40;;
72085;SDS011;64750;52.134;5.424;2023-06-10T13:09:49;3.40;;;3.10;;
72085;SDS011;64750;52.134;5.424;2023-06-10T13:12:16;4.97;;;3.50;;
72085;SDS011;64750;52.134;5.424;2023-06-10T13:14:53;6.38;;;3.58;;
72085;SDS011;64750;52.134;5.424;2023-06-10T13:17:20;4.10;;;3.78;;
72085;SDS011;64750;52.134;5.424;2023-06-10T13:19:47;5.00;;;3.45;;
72085;SDS011;64750;52.134;5.424;2023-06-10T13:22:15;4.10;;;3.70;;
72085;SDS011;64750;52.134;5.424;2023-06-10T13:24:41;4.05;;;3.42;;
72085;SDS011;64750;52.134;5.424;2023-06-10T13:27:09;3.67;;;3.47;;
72085;SDS011;64750;52.134;5.424;2023-06-10T13:29:36;3.42;;;3.13;;
72085;SDS011;64750;52.134;5.424;2023-06-10T13:32:02;4.53;;;3.78;;
72085;SDS011;64750;52.134;5.424;2023-06-10T13:34:29;3.97;;;3.57;;
72085;SDS011;64750;52.134;5.424;2023-06-10T13:36:55;3.55;;;3.25;;
72085;SDS011;64750;52.134;5.424;2023-06-10T13:39:22;3.58;;;3.22;;
72085;SDS011;64750;52.134;5.424;2023-06-10T13:41:48;3.00;;;2.80;;
72085;SDS011;64750;52.134;5.424;2023-06-10T13:44:15;5.22;;;3.33;;
72085;SDS011;64750;52.134;5.424;2023-06-10T13:46:41;3.20;;;3.00;;
72085;SDS011;64750;52.134;5.424;2023-06-10T13:49:08;5.72;;;3.30;;
72085;SDS011;64750;52.134;5.424;2023-06-10T13:51:35;7.35;;;3.45;;
72085;SDS011;64750;52.134;5.424;2023-06-10T13:54:01;4.45;;;3.60;;
72085;SDS011;64750;52.134;5.424;2023-06-10T13:56:28;5.93;;;3.20;;
72085;SDS011;64750;52.134;5.424;2023-06-10T13:58:57;3.83;;;3.23;;
72085;SDS011;64750;52.134;5.424;2023-06-10T14:01:25;3.83;;;3.40;;
72085;SDS011;64750;52.134;5.424;2023-06-10T14:03:52;3.92;;;3.50;;
72085;SDS011;64750;52.134;5.424;2023-06-10T14:06:18;3.83;;;3.45;;
72085;SDS011;64750;52.134;5.424;2023-06-10T14:08:45;3.60;;;3.30;;
72085;SDS011;64750;52.134;5.424;2023-06-10T14:11:12;4.53;;;3.17;;
72085;SDS011;64750;52.134;5.424;2023-06-10T14:13:38;3.28;;;2.97;;
72085;SDS011;64750;52.134;5.424;2023-06-10T14:16:05;3.65;;;3.35;;
72085;SDS011;64750;52.134;5.424;2023-06-10T14:18:35;3.50;;;3.20;;
72085;SDS011;64750;52.134;5.424;2023-06-10T14:21:01;3.60;;;3.35;;
72085;SDS011;64750;52.134;5.424;2023-06-10T14:23:28;5.57;;;3.40;;
72085;SDS011;64750;52.134;5.424;2023-06-10T14:25:54;6.18;;;3.33;;
72085;SDS011;64750;52.134;5.424;2023-06-10T14:28:21;3.45;;;3.15;;
72085;SDS011;64750;52.134;5.424;2023-06-10T14:30:47;5.50;;;3.40;;
72085;SDS011;64750;52.134;5.424;2023-06-10T14:33:14;5.20;;;3.47;;
72085;SDS011;64750;52.134;5.424;2023-06-10T14:35:40;3.67;;;3.37;;
72085;SDS011;64750;52.134;5.424;2023-06-10T14:38:09;3.47;;;3.17;;
72085;SDS011;64750;52.134;5.424;2023-06-10T14:40:35;3.65;;;3.35;;
72085;SDS011;64750;52.134;5.424;2023-06-10T14:43:02;3.00;;;2.70;;
72085;SDS011;64750;52.134;5.424;2023-06-10T14:45:38;5.35;;;3.72;;
72085;SDS011;64750;52.134;5.424;2023-06-10T14:48:06;3.87;;;3.57;;
72085;SDS011;64750;52.134;5.424;2023-06-10T14:50:34;3.30;;;3.10;;
72085;SDS011;64750;52.134;5.424;2023-06-10T14:53:01;3.25;;;3.05;;
72085;SDS011;64750;52.134;5.424;2023-06-10T14:55:27;4.07;;;2.92;;
72085;SDS011;64750;52.134;5.424;2023-06-10T14:57:54;5.75;;;2.92;;
72085;SDS011;64750;52.134;5.424;2023-06-10T15:00:22;3.03;;;2.80;;
72085;SDS011;64750;52.134;5.424;2023-06-10T15:02:50;3.70;;;3.40;;
72085;SDS011;64750;52.134;5.424;2023-06-10T15:05:17;3.60;;;3.30;;
72085;SDS011;64750;52.134;5.424;2023-06-10T15:07:45;4.10;;;3.70;;
72085;SDS011;64750;52.134;5.424;2023-06-10T15:10:12;4.38;;;3.10;;
72085;SDS011;64750;52.134;5.424;2023-06-10T15:12:38;3.73;;;3.47;;
72085;SDS011;64750;52.134;5.424;2023-06-10T15:15:05;3.60;;;3.30;;